Beaux Arts, Washington
Current Conditions -  °F | °C
As of 8:53 PM on Friday 19 Dec 2014 (Local Time) from KBFI Reporting Station
Few Clouds Few Clouds  
Wind Chill: 45°   Ceiling: Unl
Heat Index: 49°   Visibility: 10mi
Dew Point: 37°   Wind: 8mph
Humidity: 64%   Direction: 150°SSE
Pressure: 29.91"   Gusts: NA
Location:  47.6186°N, 122.204°W
Report Text: KBFI 200453Z 15007KT 10SM FEW060 09/03 A2991 RMK AO2 SLP128 T00940028
Loading
Personal Weather Stations






























Interactive Weather Map New forecast layout! Learn more

10-Day Weather Forecast

Advertisements
Track Severe Weather on mobile